sensor_id;sensor_type;location;lat;lon;timestamp;P1;durP1;ratioP1;P2;durP2;ratioP2
36925;SDS011;22842;48.610;11.612;2022-10-31T05:03:17;19.08;;;7.82;;
36925;SDS011;22842;48.610;11.612;2022-10-31T05:05:44;40.70;;;7.82;;
36925;SDS011;22842;48.610;11.612;2022-10-31T05:08:11;16.40;;;8.00;;
36925;SDS011;22842;48.610;11.612;2022-10-31T05:10:38;28.05;;;7.72;;
36925;SDS011;22842;48.610;11.612;2022-10-31T05:13:06;25.10;;;7.72;;
36925;SDS011;22842;48.610;11.612;2022-10-31T05:15:33;12.10;;;7.00;;
36925;SDS011;22842;48.610;11.612;2022-10-31T05:18:01;13.77;;;6.88;;
36925;SDS011;22842;48.610;11.612;2022-10-31T05:20:29;30.02;;;8.00;;
36925;SDS011;22842;48.610;11.612;2022-10-31T05:22:57;43.15;;;8.23;;
36925;SDS011;22842;48.610;11.612;2022-10-31T05:25:25;16.77;;;7.05;;
36925;SDS011;22842;48.610;11.612;2022-10-31T05:27:53;48.35;;;7.60;;
36925;SDS011;22842;48.610;11.612;2022-10-31T05:30:22;25.88;;;7.82;;
36925;SDS011;22842;48.610;11.612;2022-10-31T05:32:50;13.27;;;6.43;;
36925;SDS011;22842;48.610;11.612;2022-10-31T05:35:22;27.08;;;7.20;;
36925;SDS011;22842;48.610;11.612;2022-10-31T05:37:49;16.35;;;6.35;;
36925;SDS011;22842;48.610;11.612;2022-10-31T05:40:17;18.65;;;7.07;;
36925;SDS011;22842;48.610;11.612;2022-10-31T05:42:45;10.95;;;5.97;;
36925;SDS011;22842;48.610;11.612;2022-10-31T05:45:13;9.45;;;5.90;;
36925;SDS011;22842;48.610;11.612;2022-10-31T05:47:41;8.43;;;5.60;;
36925;SDS011;22842;48.610;11.612;2022-10-31T05:50:08;7.80;;;5.68;;
36925;SDS011;22842;48.610;11.612;2022-10-31T05:52:36;11.40;;;5.65;;
36925;SDS011;22842;48.610;11.612;2022-10-31T05:55:03;9.20;;;5.93;;
36925;SDS011;22842;48.610;11.612;2022-10-31T05:57:31;8.38;;;5.70;;
36925;SDS011;22842;48.610;11.612;2022-10-31T05:59:59;13.45;;;6.90;;
36925;SDS011;22842;48.610;11.612;2022-10-31T06:02:26;9.02;;;5.60;;
36925;SDS011;22842;48.610;11.612;2022-10-31T06:04:57;8.48;;;6.10;;
36925;SDS011;22842;48.610;11.612;2022-10-31T06:07:31;10.85;;;5.85;;
36925;SDS011;22842;48.610;11.612;2022-10-31T06:12:27;9.00;;;5.95;;
36925;SDS011;22842;48.610;11.612;2022-10-31T06:14:56;6.18;;;5.35;;
36925;SDS011;22842;48.610;11.612;2022-10-31T06:17:23;11.85;;;6.70;;
36925;SDS011;22842;48.610;11.612;2022-10-31T06:19:51;10.40;;;6.28;;
36925;SDS011;22842;48.610;11.612;2022-10-31T06:22:18;7.75;;;5.65;;
36925;SDS011;22842;48.610;11.612;2022-10-31T06:24:45;8.07;;;5.32;;
36925;SDS011;22842;48.610;11.612;2022-10-31T06:27:12;31.70;;;7.43;;
36925;SDS011;22842;48.610;11.612;2022-10-31T06:29:40;20.65;;;7.78;;
36925;SDS011;22842;48.610;11.612;2022-10-31T06:32:09;13.95;;;6.80;;
36925;SDS011;22842;48.610;11.612;2022-10-31T06:34:37;14.15;;;7.20;;
36925;SDS011;22842;48.610;11.612;2022-10-31T06:37:08;33.25;;;7.78;;
36925;SDS011;22842;48.610;11.612;2022-10-31T06:39:35;10.32;;;7.00;;
36925;SDS011;22842;48.610;11.612;2022-10-31T06:42:03;28.45;;;7.32;;
36925;SDS011;22842;48.610;11.612;2022-10-31T06:44:31;15.57;;;8.05;;
36925;SDS011;22842;48.610;11.612;2022-10-31T06:46:58;14.45;;;6.60;;
36925;SDS011;22842;48.610;11.612;2022-10-31T06:49:26;16.67;;;8.02;;
36925;SDS011;22842;48.610;11.612;2022-10-31T06:51:53;12.85;;;8.05;;
36925;SDS011;22842;48.610;11.612;2022-10-31T06:54:36;39.55;;;8.55;;
36925;SDS011;22842;48.610;11.612;2022-10-31T06:57:03;51.10;;;9.85;;
36925;SDS011;22842;48.610;11.612;2022-10-31T06:59:31;56.13;;;12.70;;
36925;SDS011;22842;48.610;11.612;2022-10-31T07:01:58;54.10;;;11.68;;
36925;SDS011;22842;48.610;11.612;2022-10-31T07:04:26;19.83;;;9.75;;
36925;SDS011;22842;48.610;11.612;2022-10-31T07:06:54;71.70;;;13.25;;
36925;SDS011;22842;48.610;11.612;2022-10-31T07:09:21;15.82;;;9.73;;
36925;SDS011;22842;48.610;11.612;2022-10-31T07:11:48;21.70;;;10.57;;
36925;SDS011;22842;48.610;11.612;2022-10-31T07:14:18;36.80;;;11.45;;
36925;SDS011;22842;48.610;11.612;2022-10-31T07:16:49;31.48;;;10.00;;
36925;SDS011;22842;48.610;11.612;2022-10-31T07:19:17;28.83;;;10.10;;
36925;SDS011;22842;48.610;11.612;2022-10-31T07:21:44;15.82;;;8.98;;
36925;SDS011;22842;48.610;11.612;2022-10-31T07:24:11;30.48;;;8.30;;
36925;SDS011;22842;48.610;11.612;2022-10-31T07:26:39;14.18;;;8.57;;
36925;SDS011;22842;48.610;11.612;2022-10-31T07:29:06;15.73;;;9.00;;
36925;SDS011;22842;48.610;11.612;2022-10-31T07:31:33;29.77;;;9.60;;
36925;SDS011;22842;48.610;11.612;2022-10-31T07:34:01;11.50;;;7.72;;
36925;SDS011;22842;48.610;11.612;2022-10-31T07:36:28;14.60;;;8.90;;
36925;SDS011;22842;48.610;11.612;2022-10-31T07:38:55;34.72;;;8.90;;
36925;SDS011;22842;48.610;11.612;2022-10-31T07:41:25;29.65;;;9.30;;
36925;SDS011;22842;48.610;11.612;2022-10-31T07:43:52;30.83;;;10.18;;
36925;SDS011;22842;48.610;11.612;2022-10-31T07:46:21;16.27;;;8.35;;
36925;SDS011;22842;48.610;11.612;2022-10-31T07:48:48;39.17;;;10.15;;
36925;SDS011;22842;48.610;11.612;2022-10-31T07:51:15;33.70;;;9.85;;
36925;SDS011;22842;48.610;11.612;2022-10-31T07:53:43;29.45;;;9.63;;
36925;SDS011;22842;48.610;11.612;2022-10-31T07:56:10;38.13;;;10.70;;
36925;SDS011;22842;48.610;11.612;2022-10-31T07:58:37;93.13;;;13.25;;
36925;SDS011;22842;48.610;11.612;2022-10-31T08:01:04;35.22;;;10.85;;
36925;SDS011;22842;48.610;11.612;2022-10-31T08:03:32;25.58;;;11.20;;
36925;SDS011;22842;48.610;11.612;2022-10-31T08:05:59;138.93;;;17.13;;
36925;SDS011;22842;48.610;11.612;2022-10-31T08:08:26;20.40;;;12.80;;
36925;SDS011;22842;48.610;11.612;2022-10-31T08:10:59;22.15;;;13.15;;
36925;SDS011;22842;48.610;11.612;2022-10-31T08:13:27;21.85;;;12.93;;
36925;SDS011;22842;48.610;11.612;2022-10-31T08:15:56;35.50;;;15.88;;
36925;SDS011;22842;48.610;11.612;2022-10-31T08:18:29;23.80;;;14.02;;
36925;SDS011;22842;48.610;11.612;2022-10-31T08:20:57;22.42;;;14.65;;
36925;SDS011;22842;48.610;11.612;2022-10-31T08:23:25;32.80;;;14.25;;
36925;SDS011;22842;48.610;11.612;2022-10-31T08:25:53;25.25;;;13.35;;
36925;SDS011;22842;48.610;11.612;2022-10-31T08:28:22;22.15;;;13.82;;
36925;SDS011;22842;48.610;11.612;2022-10-31T08:30:50;92.15;;;17.60;;
36925;SDS011;22842;48.610;11.612;2022-10-31T08:33:18;75.10;;;18.00;;
36925;SDS011;22842;48.610;11.612;2022-10-31T08:35:45;157.23;;;21.55;;
36925;SDS011;22842;48.610;11.612;2022-10-31T08:38:13;136.07;;;19.67;;
36925;SDS011;22842;48.610;11.612;2022-10-31T08:40:41;295.80;;;28.58;;
36925;SDS011;22842;48.610;11.612;2022-10-31T08:43:12;155.10;;;21.25;;
36925;SDS011;22842;48.610;11.612;2022-10-31T08:45:40;247.98;;;24.45;;
36925;SDS011;22842;48.610;11.612;2022-10-31T08:48:11;259.63;;;26.58;;
36925;SDS011;22842;48.610;11.612;2022-10-31T08:50:39;197.77;;;24.63;;
36925;SDS011;22842;48.610;11.612;2022-10-31T08:53:09;159.48;;;23.45;;
36925;SDS011;22842;48.610;11.612;2022-10-31T08:55:37;219.13;;;29.98;;
36925;SDS011;22842;48.610;11.612;2022-10-31T08:58:06;142.63;;;27.38;;
36925;SDS011;22842;48.610;11.612;2022-10-31T09:00:33;124.50;;;27.67;;
36925;SDS011;22842;48.610;11.612;2022-10-31T09:03:02;107.57;;;25.70;;
36925;SDS011;22842;48.610;11.612;2022-10-31T09:05:30;117.30;;;26.88;;
36925;SDS011;22842;48.610;11.612;2022-10-31T09:07:58;99.22;;;28.30;;
36925;SDS011;22842;48.610;11.612;2022-10-31T09:10:27;77.38;;;25.75;;
36925;SDS011;22842;48.610;11.612;2022-10-31T09:12:58;142.73;;;31.80;;
36925;SDS011;22842;48.610;11.612;2022-10-31T09:15:25;129.07;;;29.58;;
36925;SDS011;22842;48.610;11.612;2022-10-31T09:17:53;146.68;;;28.23;;
36925;SDS011;22842;48.610;11.612;2022-10-31T09:20:21;178.23;;;30.70;;
36925;SDS011;22842;48.610;11.612;2022-10-31T09:22:54;374.15;;;34.40;;
36925;SDS011;22842;48.610;11.612;2022-10-31T09:25:22;72.30;;;24.70;;
36925;SDS011;22842;48.610;11.612;2022-10-31T09:27:49;210.80;;;31.35;;
36925;SDS011;22842;48.610;11.612;2022-10-31T09:30:16;71.85;;;19.98;;
36925;SDS011;22842;48.610;11.612;2022-10-31T09:32:44;134.88;;;28.45;;
36925;SDS011;22842;48.610;11.612;2022-10-31T09:35:11;210.82;;;34.05;;
36925;SDS011;22842;48.610;11.612;2022-10-31T09:37:40;241.23;;;37.22;;
36925;SDS011;22842;48.610;11.612;2022-10-31T09:40:07;71.65;;;23.80;;
36925;SDS011;22842;48.610;11.612;2022-10-31T09:42:38;88.53;;;26.50;;
36925;SDS011;22842;48.610;11.612;2022-10-31T09:45:15;102.63;;;25.23;;
36925;SDS011;22842;48.610;11.612;2022-10-31T09:50:22;103.57;;;28.33;;
36925;SDS011;22842;48.610;11.612;2022-10-31T09:55:40;76.93;;;27.05;;
36925;SDS011;22842;48.610;11.612;2022-10-31T09:58:19;216.77;;;36.35;;
36925;SDS011;22842;48.610;11.612;2022-10-31T10:00:47;144.63;;;29.67;;
36925;SDS011;22842;48.610;11.612;2022-10-31T10:05:58;56.92;;;23.42;;
36925;SDS011;22842;48.610;11.612;2022-10-31T10:11:08;136.88;;;27.85;;
36925;SDS011;22842;48.610;11.612;2022-10-31T10:16:16;201.80;;;32.05;;
36925;SDS011;22842;48.610;11.612;2022-10-31T10:23:56;82.63;;;27.00;;
36925;SDS011;22842;48.610;11.612;2022-10-31T10:26:34;82.93;;;25.38;;
36925;SDS011;22842;48.610;11.612;2022-10-31T10:29:15;45.58;;;23.90;;
36925;SDS011;22842;48.610;11.612;2022-10-31T10:31:43;62.17;;;25.58;;
36925;SDS011;22842;48.610;11.612;2022-10-31T10:36:56;51.57;;;24.17;;
36925;SDS011;22842;48.610;11.612;2022-10-31T10:39:26;38.60;;;22.70;;
36925;SDS011;22842;48.610;11.612;2022-10-31T10:41:54;79.65;;;25.42;;
36925;SDS011;22842;48.610;11.612;2022-10-31T10:44:44;100.63;;;26.15;;
36925;SDS011;22842;48.610;11.612;2022-10-31T10:47:41;53.00;;;24.85;;
36925;SDS011;22842;48.610;11.612;2022-10-31T10:53:01;56.60;;;25.77;;
36925;SDS011;22842;48.610;11.612;2022-10-31T10:55:43;52.17;;;23.92;;
36925;SDS011;22842;48.610;11.612;2022-10-31T10:58:12;56.00;;;23.58;;
36925;SDS011;22842;48.610;11.612;2022-10-31T11:03:07;44.60;;;21.63;;
36925;SDS011;22842;48.610;11.612;2022-10-31T11:05:42;48.55;;;25.42;;
36925;SDS011;22842;48.610;11.612;2022-10-31T11:08:22;59.60;;;26.08;;
36925;SDS011;22842;48.610;11.612;2022-10-31T11:11:01;48.20;;;25.60;;
36925;SDS011;22842;48.610;11.612;2022-10-31T11:13:28;45.22;;;24.58;;
36925;SDS011;22842;48.610;11.612;2022-10-31T11:16:00;43.25;;;24.33;;
36925;SDS011;22842;48.610;11.612;2022-10-31T11:18:29;43.45;;;23.65;;
36925;SDS011;22842;48.610;11.612;2022-10-31T11:20:58;57.20;;;26.73;;
36925;SDS011;22842;48.610;11.612;2022-10-31T11:23:27;46.92;;;24.73;;
36925;SDS011;22842;48.610;11.612;2022-10-31T11:25:56;39.28;;;23.33;;
36925;SDS011;22842;48.610;11.612;2022-10-31T11:28:24;47.00;;;23.55;;
36925;SDS011;22842;48.610;11.612;2022-10-31T11:30:55;55.45;;;24.70;;
36925;SDS011;22842;48.610;11.612;2022-10-31T11:33:28;51.17;;;23.70;;
36925;SDS011;22842;48.610;11.612;2022-10-31T11:35:56;37.25;;;22.42;;
36925;SDS011;22842;48.610;11.612;2022-10-31T11:38:26;50.03;;;22.77;;
36925;SDS011;22842;48.610;11.612;2022-10-31T11:41:04;33.92;;;21.85;;
36925;SDS011;22842;48.610;11.612;2022-10-31T11:43:33;42.40;;;22.25;;
36925;SDS011;22842;48.610;11.612;2022-10-31T11:46:08;47.50;;;23.58;;
36925;SDS011;22842;48.610;11.612;2022-10-31T11:48:35;38.60;;;21.35;;
36925;SDS011;22842;48.610;11.612;2022-10-31T11:51:03;42.67;;;22.92;;
36925;SDS011;22842;48.610;11.612;2022-10-31T11:53:32;43.28;;;22.45;;
36925;SDS011;22842;48.610;11.612;2022-10-31T11:56:01;48.95;;;22.63;;
36925;SDS011;22842;48.610;11.612;2022-10-31T11:58:30;45.10;;;22.38;;
36925;SDS011;22842;48.610;11.612;2022-10-31T12:00:57;46.20;;;22.77;;
36925;SDS011;22842;48.610;11.612;2022-10-31T12:03:32;52.60;;;23.80;;
36925;SDS011;22842;48.610;11.612;2022-10-31T12:06:02;43.63;;;23.50;;
36925;SDS011;22842;48.610;11.612;2022-10-31T12:08:32;41.70;;;23.92;;
36925;SDS011;22842;48.610;11.612;2022-10-31T12:11:05;39.08;;;23.10;;
36925;SDS011;22842;48.610;11.612;2022-10-31T12:13:39;40.75;;;22.92;;
36925;SDS011;22842;48.610;11.612;2022-10-31T12:16:18;43.00;;;23.25;;
36925;SDS011;22842;48.610;11.612;2022-10-31T12:18:50;37.90;;;22.92;;
36925;SDS011;22842;48.610;11.612;2022-10-31T12:28:48;35.30;;;21.50;;
36925;SDS011;22842;48.610;11.612;2022-10-31T12:46:33;33.63;;;21.08;;
36925;SDS011;22842;48.610;11.612;2022-10-31T12:49:15;36.92;;;20.92;;
36925;SDS011;22842;48.610;11.612;2022-10-31T13:00:00;38.35;;;21.98;;
36925;SDS011;22842;48.610;11.612;2022-10-31T13:07:31;39.17;;;23.88;;
36925;SDS011;22842;48.610;11.612;2022-10-31T13:12:53;42.72;;;23.88;;
36925;SDS011;22842;48.610;11.612;2022-10-31T13:15:30;49.57;;;23.97;;
36925;SDS011;22842;48.610;11.612;2022-10-31T13:18:00;48.75;;;24.25;;
36925;SDS011;22842;48.610;11.612;2022-10-31T13:20:32;67.05;;;26.15;;
36925;SDS011;22842;48.610;11.612;2022-10-31T13:26:07;47.15;;;25.58;;
36925;SDS011;22842;48.610;11.612;2022-10-31T13:28:38;55.95;;;25.30;;
36925;SDS011;22842;48.610;11.612;2022-10-31T13:31:08;44.05;;;25.23;;
36925;SDS011;22842;48.610;11.612;2022-10-31T13:33:46;44.60;;;23.83;;
36925;SDS011;22842;48.610;11.612;2022-10-31T13:41:48;49.50;;;24.52;;
36925;SDS011;22842;48.610;11.612;2022-10-31T13:44:21;52.67;;;23.60;;
36925;SDS011;22842;48.610;11.612;2022-10-31T13:46:53;53.85;;;25.20;;
36925;SDS011;22842;48.610;11.612;2022-10-31T13:51:51;48.90;;;25.58;;
36925;SDS011;22842;48.610;11.612;2022-10-31T13:54:31;41.42;;;24.05;;
36925;SDS011;22842;48.610;11.612;2022-10-31T13:56:59;40.50;;;23.83;;
36925;SDS011;22842;48.610;11.612;2022-10-31T13:59:27;44.22;;;25.13;;
36925;SDS011;22842;48.610;11.612;2022-10-31T14:01:55;41.00;;;24.67;;
36925;SDS011;22842;48.610;11.612;2022-10-31T14:04:29;45.10;;;24.85;;
36925;SDS011;22842;48.610;11.612;2022-10-31T14:09:52;45.05;;;24.98;;
36925;SDS011;22842;48.610;11.612;2022-10-31T14:14:59;41.92;;;24.50;;
36925;SDS011;22842;48.610;11.612;2022-10-31T14:17:31;49.00;;;26.95;;
36925;SDS011;22842;48.610;11.612;2022-10-31T14:22:37;48.22;;;26.50;;
36925;SDS011;22842;48.610;11.612;2022-10-31T14:27:54;46.67;;;26.92;;
36925;SDS011;22842;48.610;11.612;2022-10-31T14:30:22;53.53;;;29.45;;
36925;SDS011;22842;48.610;11.612;2022-10-31T14:32:51;64.57;;;37.28;;
36925;SDS011;22842;48.610;11.612;2022-10-31T14:35:20;62.63;;;33.03;;
36925;SDS011;22842;48.610;11.612;2022-10-31T14:50:54;89.82;;;33.63;;
36925;SDS011;22842;48.610;11.612;2022-10-31T14:53:25;71.63;;;33.20;;
36925;SDS011;22842;48.610;11.612;2022-10-31T14:55:54;62.92;;;31.55;;
36925;SDS011;22842;48.610;11.612;2022-10-31T14:58:25;74.90;;;33.85;;
36925;SDS011;22842;48.610;11.612;2022-10-31T15:00:56;104.57;;;30.80;;
36925;SDS011;22842;48.610;11.612;2022-10-31T15:03:33;142.75;;;32.85;;
36925;SDS011;22842;48.610;11.612;2022-10-31T15:06:03;226.32;;;40.00;;
36925;SDS011;22842;48.610;11.612;2022-10-31T15:11:02;74.30;;;33.80;;
36925;SDS011;22842;48.610;11.612;2022-10-31T15:13:30;99.43;;;49.90;;
36925;SDS011;22842;48.610;11.612;2022-10-31T15:15:57;69.57;;;38.33;;
36925;SDS011;22842;48.610;11.612;2022-10-31T15:18:26;180.93;;;41.65;;
36925;SDS011;22842;48.610;11.612;2022-10-31T15:20:55;230.68;;;45.45;;
36925;SDS011;22842;48.610;11.612;2022-10-31T15:23:27;218.27;;;103.63;;
36925;SDS011;22842;48.610;11.612;2022-10-31T15:25:59;231.68;;;47.05;;
36925;SDS011;22842;48.610;11.612;2022-10-31T15:28:27;134.48;;;41.05;;
36925;SDS011;22842;48.610;11.612;2022-10-31T15:30:55;109.70;;;34.38;;
36925;SDS011;22842;48.610;11.612;2022-10-31T15:33:39;188.05;;;39.63;;
36925;SDS011;22842;48.610;11.612;2022-10-31T15:36:31;139.43;;;34.10;;
36925;SDS011;22842;48.610;11.612;2022-10-31T15:39:03;67.35;;;32.25;;
36925;SDS011;22842;48.610;11.612;2022-10-31T15:42:13;526.80;;;50.97;;
36925;SDS011;22842;48.610;11.612;2022-10-31T15:44:28;134.35;;;34.58;;
36925;SDS011;22842;48.610;11.612;2022-10-31T15:47:00;432.65;;;47.40;;
36925;SDS011;22842;48.610;11.612;2022-10-31T15:51:55;335.17;;;45.40;;
36925;SDS011;22842;48.610;11.612;2022-10-31T15:54:26;242.45;;;40.97;;
36925;SDS011;22842;48.610;11.612;2022-10-31T15:56:53;235.77;;;38.72;;
36925;SDS011;22842;48.610;11.612;2022-10-31T15:59:22;563.35;;;61.10;;
36925;SDS011;22842;48.610;11.612;2022-10-31T16:01:59;88.25;;;32.80;;
36925;SDS011;22842;48.610;11.612;2022-10-31T16:04:28;138.30;;;32.95;;
36925;SDS011;22842;48.610;11.612;2022-10-31T16:07:03;58.95;;;27.75;;
36925;SDS011;22842;48.610;11.612;2022-10-31T16:12:22;145.55;;;36.08;;
36925;SDS011;22842;48.610;11.612;2022-10-31T16:14:51;174.38;;;35.33;;
36925;SDS011;22842;48.610;11.612;2022-10-31T16:17:20;59.80;;;31.48;;
36925;SDS011;22842;48.610;11.612;2022-10-31T16:22:19;64.75;;;27.48;;
36925;SDS011;22842;48.610;11.612;2022-10-31T16:24:54;58.03;;;25.77;;
36925;SDS011;22842;48.610;11.612;2022-10-31T16:27:23;74.78;;;24.95;;
36925;SDS011;22842;48.610;11.612;2022-10-31T16:29:55;82.30;;;22.80;;
36925;SDS011;22842;48.610;11.612;2022-10-31T16:34:59;105.85;;;26.33;;
36925;SDS011;22842;48.610;11.612;2022-10-31T16:37:26;54.05;;;24.02;;
36925;SDS011;22842;48.610;11.612;2022-10-31T16:39:53;119.72;;;26.48;;
36925;SDS011;22842;48.610;11.612;2022-10-31T16:42:21;303.35;;;40.65;;
36925;SDS011;22842;48.610;11.612;2022-10-31T16:44:48;58.30;;;23.10;;
36925;SDS011;22842;48.610;11.612;2022-10-31T16:47:16;89.82;;;26.02;;
36925;SDS011;22842;48.610;11.612;2022-10-31T16:49:47;147.52;;;26.35;;
36925;SDS011;22842;48.610;11.612;2022-10-31T16:52:16;50.60;;;22.50;;
36925;SDS011;22842;48.610;11.612;2022-10-31T16:54:43;55.20;;;25.05;;
36925;SDS011;22842;48.610;11.612;2022-10-31T16:57:12;120.90;;;26.08;;
36925;SDS011;22842;48.610;11.612;2022-10-31T16:59:40;84.32;;;25.30;;
36925;SDS011;22842;48.610;11.612;2022-10-31T17:02:13;77.70;;;25.10;;
36925;SDS011;22842;48.610;11.612;2022-10-31T17:04:41;59.70;;;22.83;;
36925;SDS011;22842;48.610;11.612;2022-10-31T17:07:09;314.45;;;43.58;;
36925;SDS011;22842;48.610;11.612;2022-10-31T17:09:36;102.15;;;27.25;;
36925;SDS011;22842;48.610;11.612;2022-10-31T17:12:04;64.63;;;27.48;;
36925;SDS011;22842;48.610;11.612;2022-10-31T17:14:33;292.83;;;40.08;;
36925;SDS011;22842;48.610;11.612;2022-10-31T17:17:00;311.10;;;44.92;;
36925;SDS011;22842;48.610;11.612;2022-10-31T17:19:27;330.85;;;44.75;;
36925;SDS011;22842;48.610;11.612;2022-10-31T17:21:55;51.25;;;24.85;;
36925;SDS011;22842;48.610;11.612;2022-10-31T17:24:22;62.17;;;23.40;;
36925;SDS011;22842;48.610;11.612;2022-10-31T17:26:49;174.30;;;29.23;;
36925;SDS011;22842;48.610;11.612;2022-10-31T17:29:17;175.27;;;31.20;;
36925;SDS011;22842;48.610;11.612;2022-10-31T17:31:44;108.38;;;26.00;;
36925;SDS011;22842;48.610;11.612;2022-10-31T17:34:11;97.82;;;23.10;;
36925;SDS011;22842;48.610;11.612;2022-10-31T17:36:38;81.13;;;23.20;;
36925;SDS011;22842;48.610;11.612;2022-10-31T17:39:06;87.45;;;22.35;;
36925;SDS011;22842;48.610;11.612;2022-10-31T17:41:34;106.78;;;25.73;;
36925;SDS011;22842;48.610;11.612;2022-10-31T17:44:02;330.38;;;40.15;;
36925;SDS011;22842;48.610;11.612;2022-10-31T17:46:29;130.45;;;25.00;;
36925;SDS011;22842;48.610;11.612;2022-10-31T17:48:56;228.07;;;32.72;;
36925;SDS011;22842;48.610;11.612;2022-10-31T17:51:26;416.17;;;44.08;;
36925;SDS011;22842;48.610;11.612;2022-10-31T17:53:53;153.38;;;28.30;;
36925;SDS011;22842;48.610;11.612;2022-10-31T17:56:21;70.65;;;29.70;;
36925;SDS011;22842;48.610;11.612;2022-10-31T17:58:48;166.98;;;34.03;;
36925;SDS011;22842;48.610;11.612;2022-10-31T18:01:16;284.85;;;39.15;;
36925;SDS011;22842;48.610;11.612;2022-10-31T18:03:44;422.95;;;51.45;;
36925;SDS011;22842;48.610;11.612;2022-10-31T18:06:12;60.97;;;27.52;;
36925;SDS011;22842;48.610;11.612;2022-10-31T18:08:42;76.07;;;25.05;;
36925;SDS011;22842;48.610;11.612;2022-10-31T18:11:11;122.97;;;28.60;;
36925;SDS011;22842;48.610;11.612;2022-10-31T18:13:40;104.57;;;28.13;;
36925;SDS011;22842;48.610;11.612;2022-10-31T18:16:09;73.70;;;27.83;;
36925;SDS011;22842;48.610;11.612;2022-10-31T18:18:36;54.85;;;23.85;;
36925;SDS011;22842;48.610;11.612;2022-10-31T18:21:04;109.82;;;26.73;;
36925;SDS011;22842;48.610;11.612;2022-10-31T18:23:31;97.32;;;27.50;;
36925;SDS011;22842;48.610;11.612;2022-10-31T18:25:58;101.90;;;23.15;;
36925;SDS011;22842;48.610;11.612;2022-10-31T18:28:26;242.07;;;29.58;;
36925;SDS011;22842;48.610;11.612;2022-10-31T18:30:53;251.60;;;73.80;;
36925;SDS011;22842;48.610;11.612;2022-10-31T18:33:21;157.88;;;56.58;;
36925;SDS011;22842;48.610;11.612;2022-10-31T18:35:48;280.88;;;34.30;;
36925;SDS011;22842;48.610;11.612;2022-10-31T18:38:15;248.05;;;32.25;;
36925;SDS011;22842;48.610;11.612;2022-10-31T18:40:43;253.25;;;27.65;;
36925;SDS011;22842;48.610;11.612;2022-10-31T18:43:10;232.75;;;31.10;;
36925;SDS011;22842;48.610;11.612;2022-10-31T18:45:37;361.73;;;45.95;;
36925;SDS011;22842;48.610;11.612;2022-10-31T18:48:14;33.83;;;19.80;;
36925;SDS011;22842;48.610;11.612;2022-10-31T18:50:42;277.98;;;44.65;;
36925;SDS011;22842;48.610;11.612;2022-10-31T18:53:10;186.05;;;25.08;;
36925;SDS011;22842;48.610;11.612;2022-10-31T18:55:38;308.58;;;44.22;;
36925;SDS011;22842;48.610;11.612;2022-10-31T18:58:12;276.70;;;41.05;;
36925;SDS011;22842;48.610;11.612;2022-10-31T19:00:40;389.40;;;43.70;;
36925;SDS011;22842;48.610;11.612;2022-10-31T19:03:07;393.50;;;47.50;;
36925;SDS011;22842;48.610;11.612;2022-10-31T19:05:34;331.15;;;47.03;;
36925;SDS011;22842;48.610;11.612;2022-10-31T19:08:02;181.57;;;28.13;;
36925;SDS011;22842;48.610;11.612;2022-10-31T19:10:30;248.32;;;27.15;;
36925;SDS011;22842;48.610;11.612;2022-10-31T19:12:59;203.35;;;28.60;;
36925;SDS011;22842;48.610;11.612;2022-10-31T19:15:27;186.75;;;30.92;;
36925;SDS011;22842;48.610;11.612;2022-10-31T19:17:54;57.95;;;23.45;;
36925;SDS011;22842;48.610;11.612;2022-10-31T19:20:22;98.07;;;25.63;;
36925;SDS011;22842;48.610;11.612;2022-10-31T19:22:49;132.27;;;24.55;;
36925;SDS011;22842;48.610;11.612;2022-10-31T19:25:16;81.95;;;23.55;;
36925;SDS011;22842;48.610;11.612;2022-10-31T19:27:43;98.25;;;22.20;;
36925;SDS011;22842;48.610;11.612;2022-10-31T19:30:11;149.65;;;22.35;;
36925;SDS011;22842;48.610;11.612;2022-10-31T19:32:38;74.97;;;20.63;;
36925;SDS011;22842;48.610;11.612;2022-10-31T19:35:06;38.85;;;18.85;;
36925;SDS011;22842;48.610;11.612;2022-10-31T19:37:34;59.55;;;18.20;;
36925;SDS011;22842;48.610;11.612;2022-10-31T19:40:03;126.50;;;24.20;;
36925;SDS011;22842;48.610;11.612;2022-10-31T19:42:30;325.98;;;47.10;;
36925;SDS011;22842;48.610;11.612;2022-10-31T19:44:58;57.95;;;24.10;;
36925;SDS011;22842;48.610;11.612;2022-10-31T19:47:26;278.25;;;33.55;;
36925;SDS011;22842;48.610;11.612;2022-10-31T19:49:53;247.32;;;34.15;;
36925;SDS011;22842;48.610;11.612;2022-10-31T19:52:20;177.95;;;22.02;;
36925;SDS011;22842;48.610;11.612;2022-10-31T19:54:48;65.10;;;18.70;;
36925;SDS011;22842;48.610;11.612;2022-10-31T19:57:15;214.18;;;30.95;;
36925;SDS011;22842;48.610;11.612;2022-10-31T19:59:51;41.05;;;17.65;;
36925;SDS011;22842;48.610;11.612;2022-10-31T20:02:19;74.88;;;20.30;;
36925;SDS011;22842;48.610;11.612;2022-10-31T20:04:46;84.97;;;20.42;;
36925;SDS011;22842;48.610;11.612;2022-10-31T20:07:13;203.73;;;29.23;;
36925;SDS011;22842;48.610;11.612;2022-10-31T20:09:43;177.23;;;30.48;;
36925;SDS011;22842;48.610;11.612;2022-10-31T20:12:10;98.97;;;15.68;;
36925;SDS011;22842;48.610;11.612;2022-10-31T20:14:37;98.15;;;15.95;;
36925;SDS011;22842;48.610;11.612;2022-10-31T20:17:05;107.30;;;18.00;;
36925;SDS011;22842;48.610;11.612;2022-10-31T20:19:33;122.90;;;26.90;;
36925;SDS011;22842;48.610;11.612;2022-10-31T20:22:01;79.45;;;22.38;;
36925;SDS011;22842;48.610;11.612;2022-10-31T20:24:30;59.45;;;22.10;;
36925;SDS011;22842;48.610;11.612;2022-10-31T20:26:57;40.95;;;20.25;;
36925;SDS011;22842;48.610;11.612;2022-10-31T20:29:25;82.95;;;21.92;;
36925;SDS011;22842;48.610;11.612;2022-10-31T20:31:52;57.85;;;20.90;;
36925;SDS011;22842;48.610;11.612;2022-10-31T20:34:19;35.70;;;21.90;;
36925;SDS011;22842;48.610;11.612;2022-10-31T20:36:47;50.80;;;20.25;;
36925;SDS011;22842;48.610;11.612;2022-10-31T20:39:14;43.83;;;17.45;;
36925;SDS011;22842;48.610;11.612;2022-10-31T20:41:41;52.90;;;17.50;;
36925;SDS011;22842;48.610;11.612;2022-10-31T20:44:09;51.00;;;18.45;;
36925;SDS011;22842;48.610;11.612;2022-10-31T20:46:36;43.42;;;19.17;;
36925;SDS011;22842;48.610;11.612;2022-10-31T20:49:03;64.82;;;18.70;;
36925;SDS011;22842;48.610;11.612;2022-10-31T20:51:31;83.07;;;16.73;;
36925;SDS011;22842;48.610;11.612;2022-10-31T20:53:58;147.75;;;22.80;;
36925;SDS011;22842;48.610;11.612;2022-10-31T20:56:26;50.08;;;17.35;;
36925;SDS011;22842;48.610;11.612;2022-10-31T20:58:54;78.53;;;18.67;;
36925;SDS011;22842;48.610;11.612;2022-10-31T21:01:23;139.93;;;17.98;;
36925;SDS011;22842;48.610;11.612;2022-10-31T21:03:51;22.73;;;15.20;;
36925;SDS011;22842;48.610;11.612;2022-10-31T21:06:19;36.28;;;15.20;;
36925;SDS011;22842;48.610;11.612;2022-10-31T21:08:48;58.03;;;15.18;;
36925;SDS011;22842;48.610;11.612;2022-10-31T21:11:18;32.83;;;13.45;;
36925;SDS011;22842;48.610;11.612;2022-10-31T21:13:46;20.88;;;12.45;;
36925;SDS011;22842;48.610;11.612;2022-10-31T21:16:14;50.10;;;13.18;;
36925;SDS011;22842;48.610;11.612;2022-10-31T21:18:42;21.08;;;11.55;;